EFKE/KEM METAR and TAF weather

Enter ICAO airport designator
Station Type Date Time Source
EFKE METAR 2020/11/28 20:20 UTC NOAA

EFKE 282020Z AUTO 18008KT 9999 OVC015 M01/M02 Q1029


Station Type Date Time Source
EFKE Decoded METAR 2020/11/28 20:20 UTC NOAA

Kemi, Finland (EFKE) 65-47N 024-35E
Nov 28, 2020 - 03:20 PM EST / 2020.11.28 2020 UTC
Wind: from the S (180 degrees) at 9 MPH (8 KT):0
Visibility: greater than 7 mile(s):0
Sky conditions: overcast
Temperature: 30 F (-1 C)
Windchill: 21 F (-6 C):1
Dew Point: 28 F (-2 C)
Relative Humidity: 92%
Pressure (altimeter): 30.39 in. Hg (1029 hPa)
ob: EFKE 282020Z AUTO 18008KT 9999 OVC015 M01/M02 Q1029
cycle: 20

Station Type Date Time Source
EFKE TAF 2015/01/12 15:42 UTC NOAA

TAF EFKE 121433Z 1215/1312 03006KT CAVOK
BECMG 1300/1302 9999 BKN015
FM130400 07008KT 9999 SCT014 BKN018
TEMPO 1304/1312 7000 -SN

Example: see airport list